Time;durP1;ratioP1;P1;durP2;ratioP2;P2;SDS_P1;SDS_P2;PMS_P1;PMS_P2;Temp;Humidity;BMP_temperature;BMP_pressure;BME280_temperature;BME280_humidity;BME280_pressure;Samples;Min_cycle;Max_cycle;Signal;HPM_P1;HPM_P2
2021/01/09 00:00:08;;;;;;;0.00;0.00;;;0.80;89.30;;;;;;5351677;23;20076;-90
2021/01/09 00:02:34;;;;;;;0.10;0.10;;;0.80;89.40;;;;;;5000796;28;20434;-90
2021/01/09 00:05:01;;;;;;;0.00;0.00;;;0.70;89.40;;;;;;4999547;28;20042;-91
2021/01/09 00:07:30;;;;;;;2.33;0.70;;;0.70;89.40;;;;;;4998504;28;20045;-90
2021/01/09 00:09:57;;;;;;;0.77;0.43;;;0.70;89.40;;;;;;5001947;28;20045;-93
2021/01/09 00:12:27;;;;;;;0.93;0.57;;;0.70;89.40;;;;;;5002650;28;20113;-90
2021/01/09 00:14:56;;;;;;;3.37;1.47;;;0.80;89.50;;;;;;4999606;28;20041;-91
2021/01/09 00:17:23;;;;;;;1.50;1.07;;;0.70;89.20;;;;;;4995772;28;20034;-92
2021/01/09 00:19:49;;;;;;;0.77;0.67;;;0.70;89.30;;;;;;4982173;28;20042;-91
2021/01/09 00:22:15;;;;;;;0.00;0.00;;;0.70;89.40;;;;;;4979087;28;21056;-90
2021/01/09 00:24:42;;;;;;;0.47;0.30;;;0.70;89.40;;;;;;4979609;28;20057;-91
2021/01/09 00:27:09;;;;;;;0.30;0.30;;;0.60;89.40;;;;;;4979806;28;20041;-90
2021/01/09 00:29:36;;;;;;;5.13;0.20;;;0.50;89.50;;;;;;4980452;28;20344;-90
2021/01/09 00:32:03;;;;;;;0.10;0.10;;;0.50;89.60;;;;;;4980761;28;20045;-92
2021/01/09 00:34:30;;;;;;;1.83;0.47;;;0.50;89.70;;;;;;4981978;28;20121;-92
2021/01/09 00:36:56;;;;;;;3.57;0.90;;;0.50;89.70;;;;;;4979160;28;20037;-90
2021/01/09 00:39:23;;;;;;;4.30;1.23;;;0.50;89.60;;;;;;4981603;28;20037;-91
2021/01/09 00:41:50;;;;;;;0.23;0.10;;;0.50;89.70;;;;;;4968220;28;20046;-92
2021/01/09 00:44:17;;;;;;;0.00;0.00;;;0.60;89.80;;;;;;4979282;28;20044;-91
2021/01/09 00:46:43;;;;;;;0.03;0.03;;;0.60;89.50;;;;;;4978716;28;20041;-90
2021/01/09 00:49:10;;;;;;;0.00;0.00;;;0.50;89.40;;;;;;4995456;28;20038;-90
2021/01/09 00:51:36;;;;;;;0.00;0.00;;;0.50;89.50;;;;;;4981724;28;20045;-89
2021/01/09 00:54:05;;;;;;;0.67;0.43;;;0.50;89.50;;;;;;4994483;28;20065;-89
2021/01/09 00:56:34;;;;;;;0.83;0.20;;;0.40;89.60;;;;;;4995938;28;20042;-90
2021/01/09 00:59:01;;;;;;;0.20;0.20;;;0.30;89.80;;;;;;4981599;28;20046;-91
2021/01/09 01:01:27;;;;;;;0.30;0.10;;;0.20;89.90;;;;;;4978718;28;20463;-90
2021/01/09 01:03:53;;;;;;;0.13;0.13;;;0.10;90.00;;;;;;4979473;28;20038;-91
2021/01/09 01:06:26;;;;;;;0.00;0.00;;;0.20;90.00;;;;;;4976952;28;20039;-89
2021/01/09 01:08:53;;;;;;;0.30;0.13;;;0.10;90.00;;;;;;4978859;28;20042;-90
2021/01/09 01:11:27;;;;;;;0.33;0.13;;;0.20;90.00;;;;;;4977756;28;20433;-91
2021/01/09 01:13:54;;;;;;;0.83;0.20;;;0.30;90.00;;;;;;4979532;28;20042;-91
2021/01/09 01:16:21;;;;;;;4.43;0.23;;;0.30;89.90;;;;;;4985348;28;20034;-92
2021/01/09 01:18:47;;;;;;;0.27;0.27;;;0.30;89.80;;;;;;4997236;28;20038;-90
2021/01/09 01:21:14;;;;;;;0.60;0.60;;;0.30;89.70;;;;;;4999349;28;20053;-91
2021/01/09 01:23:40;;;;;;;0.43;0.43;;;0.30;89.70;;;;;;5015398;28;20042;-92
2021/01/09 01:26:11;;;;;;;1.80;0.67;;;0.30;89.80;;;;;;5012525;28;20041;-91
2021/01/09 01:29:12;;;;;;;0.10;0.10;;;0.40;89.70;;;;;;4993925;28;20041;-90
2021/01/09 01:31:38;;;;;;;0.77;0.43;;;0.30;89.50;;;;;;4985306;28;20042;-89
2021/01/09 01:34:04;;;;;;;0.00;0.00;;;0.40;89.50;;;;;;4981335;28;20417;-90
2021/01/09 01:36:31;;;;;;;0.30;0.03;;;0.30;89.50;;;;;;4998258;28;20049;-89
2021/01/09 01:42:39;;;;;;;0.40;0.40;;;0.10;89.80;;;;;;4970078;28;20101;-90
2021/01/09 01:45:08;;;;;;;0.00;0.00;;;0.10;89.90;;;;;;4998320;28;20444;-90
2021/01/09 01:47:36;;;;;;;0.00;0.00;;;0.10;89.80;;;;;;5010453;28;20037;-90
2021/01/09 01:50:03;;;;;;;0.00;0.00;;;0.10;89.80;;;;;;5022289;28;20025;-91
2021/01/09 01:52:30;;;;;;;0.00;0.00;;;0.00;89.80;;;;;;5022467;28;20422;-91
2021/01/09 01:54:56;;;;;;;0.00;0.00;;;0.00;89.90;;;;;;5038159;28;20040;-89
2021/01/09 01:57:22;;;;;;;0.00;0.00;;;0.00;90.00;;;;;;5018362;28;20038;-90
2021/01/09 01:59:49;;;;;;;0.67;0.60;;;0.00;90.00;;;;;;5021401;28;20053;-90
2021/01/09 02:02:15;;;;;;;0.30;0.30;;;0.00;90.00;;;;;;5004169;28;20469;-90
2021/01/09 02:04:45;;;;;;;0.23;0.23;;;0.00;90.00;;;;;;5004641;28;20439;-91
2021/01/09 02:07:16;;;;;;;0.07;0.03;;;0.00;90.00;;;;;;5020286;28;20049;-90
2021/01/09 02:09:44;;;;;;;0.10;0.00;;;0.00;90.00;;;;;;5023788;28;20036;-90
2021/01/09 02:12:28;;;;;;;0.00;0.00;;;0.00;90.00;;;;;;5020133;28;20041;-91
2021/01/09 02:15:00;;;;;;;0.00;0.00;;;0.00;90.00;;;;;;5021572;28;20041;-91
2021/01/09 02:17:26;;;;;;;0.00;0.00;;;0.00;90.00;;;;;;5019886;28;20044;-90
2021/01/09 02:19:53;;;;;;;0.00;0.00;;;-0.10;90.00;;;;;;5020628;28;20056;-90
2021/01/09 02:22:22;;;;;;;0.40;0.13;;;-0.10;90.00;;;;;;5019100;28;20336;-90
2021/01/09 02:24:49;;;;;;;6.53;1.10;;;-0.10;90.00;;;;;;5035034;28;20448;-91
2021/01/09 02:27:15;;;;;;;0.50;0.50;;;-0.10;90.00;;;;;;5005366;28;20040;-92
2021/01/09 02:29:52;;;;;;;0.27;0.23;;;-0.10;90.00;;;;;;5021057;28;20428;-90
2021/01/09 02:32:19;;;;;;;5.73;0.47;;;-0.10;90.00;;;;;;5020067;28;20037;-90
2021/01/09 02:34:50;;;;;;;0.00;0.00;;;-0.10;90.00;;;;;;5005937;28;20324;-90
2021/01/09 02:37:17;;;;;;;;;;;-0.10;90.30;;;;;;5023986;28;20032;-89
2021/01/09 02:39:43;;;;;;;0.00;0.00;;;-0.20;90.00;;;;;;5036330;28;19912;-90
2021/01/09 02:42:09;;;;;;;0.10;0.10;;;-0.20;90.30;;;;;;5022068;28;20033;-91
2021/01/09 02:44:37;;;;;;;0.00;0.00;;;-0.20;90.10;;;;;;5036561;28;20025;-90
2021/01/09 02:47:04;;;;;;;0.00;0.00;;;-0.20;90.00;;;;;;5017093;28;20021;-90
2021/01/09 02:49:31;;;;;;;0.00;0.00;;;-0.20;90.00;;;;;;5023310;28;20049;-90
2021/01/09 02:52:00;;;;;;;0.00;0.00;;;-0.20;90.10;;;;;;5037258;28;20041;-90
2021/01/09 02:54:26;;;;;;;0.13;0.10;;;-0.30;90.10;;;;;;5003367;28;20033;-90
2021/01/09 02:56:53;;;;;;;0.07;0.00;;;-0.30;90.10;;;;;;5036727;28;20048;-91
2021/01/09 02:59:19;;;;;;;1.40;0.77;;;-0.20;90.10;;;;;;5037120;28;20056;-90
2021/01/09 03:05:13;;;;;;;0.17;0.17;;;-0.20;90.10;;;;;;5013840;28;20064;-89
2021/01/09 03:07:39;;;;;;;2.10;0.67;;;-0.20;90.10;;;;;;5033302;28;20032;-91
2021/01/09 03:10:06;;;;;;;1.03;0.50;;;-0.20;90.10;;;;;;5022844;28;20062;-89
2021/01/09 03:13:00;;;;;;;0.00;0.00;;;-0.10;90.10;;;;;;5004565;28;20045;-89
2021/01/09 03:15:27;;;;;;;0.00;0.00;;;-0.10;90.00;;;;;;5004253;28;20474;-89
2021/01/09 03:17:53;;;;;;;0.10;0.00;;;-0.10;90.30;;;;;;5001506;28;20041;-91
2021/01/09 03:20:20;;;;;;;0.00;0.00;;;-0.20;90.00;;;;;;5013662;28;20048;-91
2021/01/09 03:22:46;;;;;;;0.00;0.00;;;-0.20;90.00;;;;;;5019882;28;20033;-90
2021/01/09 03:25:13;;;;;;;2.47;0.23;;;-0.20;90.10;;;;;;5021336;28;20048;-90
2021/01/09 03:27:39;;;;;;;0.60;0.50;;;-0.20;90.10;;;;;;5038492;28;20032;-89
2021/01/09 03:30:06;;;;;;;0.00;0.00;;;-0.20;90.10;;;;;;5020535;28;20041;-90
2021/01/09 03:32:32;;;;;;;0.00;0.00;;;-0.10;90.00;;;;;;5002672;28;20041;-91
2021/01/09 03:34:58;;;;;;;0.00;0.00;;;-0.10;90.00;;;;;;5031170;28;20049;-91
2021/01/09 03:37:25;;;;;;;0.30;0.30;;;-0.10;90.00;;;;;;5021762;28;20347;-90
2021/01/09 03:39:51;;;;;;;2.07;1.27;;;-0.20;90.00;;;;;;5036311;28;20048;-90
2021/01/09 03:42:18;;;;;;;0.10;0.10;;;-0.20;90.10;;;;;;5018092;28;20041;-91
2021/01/09 03:44:44;;;;;;;0.00;0.00;;;-0.10;90.20;;;;;;5019147;28;20037;-91
2021/01/09 03:47:11;;;;;;;1.00;0.50;;;-0.10;90.10;;;;;;5035175;28;20036;-91
2021/01/09 03:49:37;;;;;;;0.30;0.23;;;-0.10;90.00;;;;;;5019126;28;20029;-90
2021/01/09 03:52:04;;;;;;;0.10;0.10;;;0.00;90.00;;;;;;5021658;28;20331;-91
2021/01/09 03:54:30;;;;;;;0.00;0.00;;;0.00;90.00;;;;;;5002647;28;20064;-90
2021/01/09 03:56:56;;;;;;;0.17;0.17;;;0.00;90.00;;;;;;5034828;28;20351;-90
2021/01/09 03:59:23;;;;;;;2.43;1.00;;;0.00;90.00;;;;;;5015707;28;20041;-91
2021/01/09 04:01:49;;;;;;;0.10;0.00;;;0.00;90.00;;;;;;4996330;28;20428;-91
2021/01/09 04:04:15;;;;;;;0.50;0.27;;;-0.10;90.00;;;;;;4998704;28;20056;-90
2021/01/09 04:06:42;;;;;;;0.57;0.37;;;-0.10;90.00;;;;;;5015948;28;20042;-90
2021/01/09 04:09:08;;;;;;;0.97;0.43;;;-0.10;90.00;;;;;;4999600;28;20033;-91
2021/01/09 04:11:35;;;;;;;7.73;1.17;;;-0.10;90.10;;;;;;5000085;28;20048;-90
2021/01/09 04:14:01;;;;;;;1.47;0.37;;;0.00;90.10;;;;;;5015662;28;20041;-90
2021/01/09 04:16:28;;;;;;;2.17;0.73;;;0.00;90.00;;;;;;5015873;28;20041;-90
2021/01/09 04:18:54;;;;;;;0.30;0.30;;;0.00;90.00;;;;;;5017278;28;20446;-89
2021/01/09 04:21:20;;;;;;;0.00;0.00;;;0.00;90.00;;;;;;5013036;28;20042;-91
2021/01/09 04:23:47;;;;;;;0.53;0.07;;;0.00;90.00;;;;;;4998543;28;20038;-89
2021/01/09 04:26:15;;;;;;;0.87;0.30;;;0.00;90.00;;;;;;4998110;28;20026;-91
2021/01/09 04:28:41;;;;;;;0.03;0.00;;;0.00;90.00;;;;;;4999288;28;20025;-90
2021/01/09 04:31:08;;;;;;;0.40;0.10;;;0.00;90.10;;;;;;4998013;28;20040;-91
2021/01/09 04:33:34;;;;;;;6.67;0.83;;;0.00;90.10;;;;;;5018127;28;20231;-90
2021/01/09 04:36:01;;;;;;;0.37;0.13;;;-0.10;90.00;;;;;;5020493;28;20065;-91
2021/01/09 04:38:27;;;;;;;0.10;0.10;;;-0.10;90.10;;;;;;5020403;28;20046;-91
2021/01/09 04:40:55;;;;;;;0.00;0.00;;;-0.10;90.10;;;;;;5035637;28;20040;-92
2021/01/09 04:43:21;;;;;;;0.50;0.47;;;-0.10;90.10;;;;;;5018173;28;20487;-91
2021/01/09 04:45:48;;;;;;;0.83;0.37;;;-0.10;90.10;;;;;;5018592;28;20048;-92
2021/01/09 04:48:14;;;;;;;0.00;0.00;;;-0.10;90.20;;;;;;5018813;28;20036;-91
2021/01/09 04:50:43;;;;;;;4.33;0.73;;;-0.10;90.20;;;;;;5021741;28;20033;-92
2021/01/09 04:53:10;;;;;;;0.00;0.00;;;-0.10;90.10;;;;;;5035183;28;20045;-91
2021/01/09 04:55:36;;;;;;;0.00;0.00;;;-0.10;90.20;;;;;;5023056;28;20037;-90
2021/01/09 04:58:02;;;;;;;0.57;0.27;;;-0.20;90.10;;;;;;5006506;28;20037;-90
2021/01/09 05:00:29;;;;;;;0.10;0.10;;;-0.20;90.20;;;;;;5033277;28;20033;-91
2021/01/09 05:02:56;;;;;;;4.57;0.47;;;-0.30;90.20;;;;;;5015651;28;20053;-91
2021/01/09 05:05:23;;;;;;;0.17;0.17;;;-0.30;90.20;;;;;;5001910;28;20048;-90
2021/01/09 05:07:50;;;;;;;0.00;0.00;;;-0.30;90.20;;;;;;5034464;28;20043;-90
2021/01/09 05:10:17;;;;;;;1.03;0.27;;;-0.30;90.20;;;;;;5021198;28;20037;-90
2021/01/09 05:12:43;;;;;;;1.00;0.73;;;-0.20;90.20;;;;;;5010391;28;20041;-89
2021/01/09 05:15:10;;;;;;;0.13;0.07;;;-0.30;90.20;;;;;;5032538;28;20053;-90
2021/01/09 05:17:38;;;;;;;0.30;0.10;;;-0.30;90.20;;;;;;5030906;28;20033;-90
2021/01/09 05:20:06;;;;;;;0.00;0.00;;;-0.20;90.20;;;;;;5016290;28;20337;-90
2021/01/09 05:22:37;;;;;;;0.40;0.40;;;-0.20;90.20;;;;;;5008811;28;20045;-89
2021/01/09 05:25:05;;;;;;;1.70;0.87;;;-0.20;90.10;;;;;;5030448;28;20040;-89
2021/01/09 05:27:32;;;;;;;1.73;1.60;;;-0.20;90.10;;;;;;5034613;28;20036;-90
2021/01/09 05:29:59;;;;;;;0.77;0.50;;;-0.20;90.20;;;;;;5033533;28;22954;-90
2021/01/09 05:32:25;;;;;;;4.23;0.80;;;-0.20;90.20;;;;;;4997767;28;20046;-89
2021/01/09 05:34:53;;;;;;;0.00;0.00;;;-0.20;90.10;;;;;;5022412;28;20029;-92
2021/01/09 05:37:24;;;;;;;0.00;0.00;;;-0.20;90.10;;;;;;5017000;28;20065;-89
2021/01/09 05:39:55;;;;;;;1.27;0.83;;;-0.20;90.10;;;;;;5017258;28;20426;-90
2021/01/09 05:42:26;;;;;;;0.00;0.00;;;-0.20;90.20;;;;;;5018460;28;20045;-90
2021/01/09 05:44:53;;;;;;;;;;;-0.30;90.20;;;;;;5015330;28;20036;-90
2021/01/09 05:47:27;;;;;;;0.23;0.23;;;-0.30;90.20;;;;;;5034526;28;20397;-89
2021/01/09 05:49:59;;;;;;;0.10;0.10;;;-0.30;90.20;;;;;;5015997;28;20036;-89
2021/01/09 05:52:26;;;;;;;4.00;1.17;;;-0.30;90.20;;;;;;5027149;28;20483;-90
2021/01/09 05:54:56;;;;;;;0.43;0.27;;;-0.40;90.20;;;;;;5015459;28;20037;-90
2021/01/09 05:57:30;;;;;;;1.23;0.63;;;-0.40;90.20;;;;;;5012245;28;20332;-91
2021/01/09 06:00:21;;;;;;;0.37;0.20;;;-0.30;90.20;;;;;;5014026;28;20040;-90
2021/01/09 06:03:19;;;;;;;1.25;0.52;;;-0.30;90.20;;;;;;5001893;28;20022;-90
2021/01/09 06:05:47;;;;;;;0.53;0.27;;;-0.30;90.20;;;;;;5024903;28;20038;-90
2021/01/09 06:08:20;;;;;;;4.70;2.23;;;-0.30;90.10;;;;;;5017860;28;20025;-89
2021/01/09 06:10:47;;;;;;;0.00;0.00;;;-0.20;90.10;;;;;;5033863;28;20038;-90
2021/01/09 06:13:13;;;;;;;0.77;0.27;;;-0.20;90.10;;;;;;5014339;28;20450;-90
2021/01/09 06:15:41;;;;;;;4.37;1.03;;;-0.20;90.10;;;;;;5016283;28;20320;-90
2021/01/09 06:18:10;;;;;;;2.30;1.10;;;-0.20;90.10;;;;;;5014506;28;20451;-92
2021/01/09 06:20:37;;;;;;;1.17;1.07;;;-0.30;90.10;;;;;;5009233;28;20038;-89
2021/01/09 06:23:03;;;;;;;0.53;0.47;;;-0.20;90.40;;;;;;5033599;28;20293;-91
2021/01/09 06:25:30;;;;;;;2.07;0.67;;;0.40;90.10;;;;;;5011765;28;20187;-90
2021/01/09 06:28:05;;;;;;;0.10;0.00;;;0.40;89.00;;;;;;5008408;28;20052;-91
2021/01/09 06:30:34;;;;;;;0.10;0.00;;;0.20;89.00;;;;;;5000381;28;20030;-90
2021/01/09 06:33:02;;;;;;;0.70;0.33;;;0.00;89.60;;;;;;5033424;28;20040;-91
2021/01/09 06:35:31;;;;;;;0.00;0.00;;;-0.10;90.00;;;;;;5014974;28;20037;-91
2021/01/09 06:37:57;;;;;;;0.00;0.00;;;-0.20;90.10;;;;;;5025748;28;20021;-90
2021/01/09 06:40:24;;;;;;;0.00;0.00;;;-0.30;90.20;;;;;;5016776;28;20042;-91
2021/01/09 06:42:50;;;;;;;2.80;1.10;;;-0.40;90.30;;;;;;5033587;28;20335;-91
2021/01/09 06:45:17;;;;;;;0.00;0.00;;;-0.40;90.30;;;;;;5000356;28;20037;-91
2021/01/09 06:47:55;;;;;;;0.30;0.30;;;-0.50;90.40;;;;;;5017081;28;20048;-90
2021/01/09 06:50:22;;;;;;;1.80;1.23;;;-0.50;90.40;;;;;;4997324;28;20043;-92
2021/01/09 06:52:54;;;;;;;6.23;1.13;;;-0.50;90.40;;;;;;5033679;28;20037;-92
2021/01/09 06:55:51;;;;;;;1.07;0.57;;;-0.60;90.40;;;;;;5029231;28;20429;-90
2021/01/09 06:58:18;;;;;;;2.60;0.93;;;-0.50;90.40;;;;;;5031843;28;20321;-90
2021/01/09 07:00:44;;;;;;;0.70;0.43;;;-0.50;90.30;;;;;;5002267;28;20041;-90
2021/01/09 07:03:14;;;;;;;0.30;0.30;;;-0.60;90.40;;;;;;5017367;28;20451;-91
2021/01/09 07:05:51;;;;;;;2.33;0.43;;;-0.60;90.30;;;;;;5016563;28;20046;-90
2021/01/09 07:08:30;;;;;;;2.10;0.57;;;-0.60;90.40;;;;;;5016870;28;20049;-91
2021/01/09 07:10:57;;;;;;;2.73;0.67;;;-0.60;90.30;;;;;;4997911;28;20034;-92
2021/01/09 07:13:24;;;;;;;0.50;0.20;;;-0.60;90.30;;;;;;5016919;28;20045;-91
2021/01/09 07:16:10;;;;;;;0.03;0.03;;;-0.60;90.40;;;;;;5018297;28;20030;-91
2021/01/09 07:18:47;;;;;;;0.50;0.10;;;-0.60;90.30;;;;;;5000617;28;20032;-90
2021/01/09 07:21:20;;;;;;;0.00;0.00;;;-0.60;90.30;;;;;;4998229;28;20040;-90
2021/01/09 07:23:50;;;;;;;1.93;0.57;;;-0.50;90.50;;;;;;5015621;28;20033;-92
2021/01/09 07:26:17;;;;;;;0.22;0.22;;;-0.40;90.20;;;;;;5019577;28;20025;-90
2021/01/09 07:28:44;;;;;;;0.30;0.30;;;-0.40;90.10;;;;;;4999044;28;20045;-90
2021/01/09 07:31:10;;;;;;;1.53;1.07;;;-0.50;90.10;;;;;;5015373;28;20030;-91
2021/01/09 07:33:37;;;;;;;0.53;0.37;;;-0.50;90.10;;;;;;5016047;28;20026;-91
2021/01/09 07:36:04;;;;;;;0.40;0.13;;;-0.60;90.20;;;;;;5016061;28;20032;-90
2021/01/09 07:38:30;;;;;;;1.13;0.23;;;-0.60;90.20;;;;;;5013561;28;20340;-89
2021/01/09 07:40:58;;;;;;;0.17;0.17;;;-0.60;90.30;;;;;;4999549;28;20029;-90
2021/01/09 07:43:35;;;;;;;0.83;0.57;;;-0.70;90.20;;;;;;4999475;28;20435;-89
2021/01/09 07:46:02;;;;;;;0.10;0.10;;;-0.60;90.30;;;;;;5011998;28;20034;-90
2021/01/09 07:48:32;;;;;;;1.50;0.63;;;-0.60;90.30;;;;;;4997304;28;20044;-90
2021/01/09 07:50:59;;;;;;;2.20;0.87;;;-0.70;90.20;;;;;;5012550;28;20366;-90
2021/01/09 07:53:28;;;;;;;1.10;0.33;;;-0.70;90.20;;;;;;5013300;28;20059;-88
2021/01/09 07:55:55;;;;;;;0.40;0.37;;;-0.70;90.30;;;;;;5015496;28;20360;-92
2021/01/09 07:58:48;;;;;;;1.73;0.53;;;-0.70;90.20;;;;;;5013833;28;20025;-91
2021/01/09 08:01:14;;;;;;;1.13;0.40;;;-0.70;90.30;;;;;;5017281;28;20438;-90
2021/01/09 08:03:41;;;;;;;0.50;0.43;;;-0.70;90.20;;;;;;5021563;28;20029;-90
2021/01/09 08:06:07;;;;;;;1.33;0.30;;;-0.70;90.20;;;;;;5039019;28;20037;-90
2021/01/09 08:08:34;;;;;;;6.53;1.40;;;-0.70;90.20;;;;;;5003131;28;20048;-89
2021/01/09 08:11:04;;;;;;;0.40;0.40;;;-0.70;90.20;;;;;;5020173;28;20044;-90
2021/01/09 08:13:30;;;;;;;0.45;0.45;;;-0.70;90.20;;;;;;5016242;28;20040;-89
2021/01/09 08:15:57;;;;;;;0.00;0.00;;;-0.70;90.20;;;;;;5033281;28;20055;-91
2021/01/09 08:18:24;;;;;;;0.00;0.00;;;-0.60;90.20;;;;;;5020070;28;20021;-91
2021/01/09 08:20:50;;;;;;;0.00;0.00;;;-0.60;90.20;;;;;;5002687;28;20335;-90
2021/01/09 08:23:16;;;;;;;0.00;0.00;;;-0.60;90.20;;;;;;5002241;28;20037;-91
2021/01/09 08:25:43;;;;;;;0.00;0.00;;;-0.60;90.10;;;;;;5017749;28;20040;-91
2021/01/09 08:28:10;;;;;;;0.00;0.00;;;-0.60;90.10;;;;;;5035685;28;20025;-90
2021/01/09 08:30:38;;;;;;;7.27;0.80;;;-0.50;90.10;;;;;;5037231;28;20038;-90
2021/01/09 08:33:08;;;;;;;0.60;0.10;;;-0.50;90.10;;;;;;5032897;28;20044;-90
2021/01/09 08:35:35;;;;;;;0.00;0.00;;;-0.50;90.10;;;;;;5035533;28;20043;-90
2021/01/09 08:38:02;;;;;;;0.00;0.00;;;-0.50;90.00;;;;;;5019802;28;20292;-89
2021/01/09 08:40:36;;;;;;;0.00;0.00;;;-0.50;90.00;;;;;;5008572;28;20043;-93
2021/01/09 08:43:07;;;;;;;0.00;0.00;;;-0.40;90.00;;;;;;5039026;28;20025;-90
2021/01/09 08:45:39;;;;;;;0.80;0.38;;;-0.40;90.00;;;;;;5052862;28;20040;-92
2021/01/09 08:48:27;;;;;;;0.00;0.00;;;-0.30;89.90;;;;;;5035409;28;20486;-89
2021/01/09 08:51:02;;;;;;;0.63;0.00;;;0.00;90.10;;;;;;5037920;28;20037;-93
2021/01/09 08:53:52;;;;;;;2.70;1.10;;;0.30;89.00;;;;;;5035883;28;20428;-91
2021/01/09 08:56:22;;;;;;;0.70;0.57;;;0.20;88.70;;;;;;5023167;28;20048;-90
2021/01/09 08:58:48;;;;;;;0.00;0.00;;;0.10;89.00;;;;;;5018525;28;20420;-91
2021/01/09 09:01:44;;;;;;;0.17;0.17;;;0.10;89.10;;;;;;5030940;28;20041;-92
2021/01/09 09:04:20;;;;;;;2.37;0.20;;;0.10;89.30;;;;;;5009931;28;20041;-92
2021/01/09 09:06:58;;;;;;;0.03;0.03;;;0.10;89.40;;;;;;5001660;28;20038;-92
2021/01/09 09:09:25;;;;;;;2.87;0.70;;;0.10;89.20;;;;;;5017432;28;20041;-92
2021/01/09 09:11:52;;;;;;;0.27;0.10;;;0.10;89.20;;;;;;5006815;28;20048;-92
2021/01/09 09:14:19;;;;;;;0.30;0.30;;;0.20;89.20;;;;;;5015900;28;20034;-92
2021/01/09 09:17:21;;;;;;;0.20;0.20;;;0.20;89.10;;;;;;4998670;28;20036;-92
2021/01/09 09:19:57;;;;;;;2.93;0.30;;;0.30;89.10;;;;;;5033937;28;20026;-92
2021/01/09 09:22:30;;;;;;;0.10;0.10;;;0.30;88.90;;;;;;5004750;28;20279;-91
2021/01/09 09:24:56;;;;;;;0.93;0.50;;;0.40;88.80;;;;;;5019949;28;20029;-92
2021/01/09 09:27:31;;;;;;;1.40;1.07;;;0.70;88.90;;;;;;5016085;28;20048;-91
2021/01/09 09:30:17;;;;;;;0.67;0.53;;;0.80;87.80;;;;;;5000188;28;20037;-92
2021/01/09 09:32:47;;;;;;;0.00;0.00;;;0.80;88.60;;;;;;5033544;28;20034;-92
2021/01/09 09:35:20;;;;;;;0.27;0.20;;;0.80;88.00;;;;;;5021635;28;20038;-91
2021/01/09 09:37:49;;;;;;;0.33;0.27;;;0.80;88.00;;;;;;5034520;28;20025;-92
2021/01/09 09:40:32;;;;;;;0.00;0.00;;;0.80;87.90;;;;;;5037472;28;20029;-93
2021/01/09 09:43:14;;;;;;;0.77;0.60;;;0.90;87.90;;;;;;5037219;28;20033;-92
2021/01/09 09:45:55;;;;;;;0.00;0.00;;;1.00;87.80;;;;;;5037318;28;20029;-92
2021/01/09 09:48:33;;;;;;;0.10;0.10;;;1.00;87.70;;;;;;5030986;28;20324;-93
2021/01/09 09:51:07;;;;;;;0.13;0.10;;;1.00;87.70;;;;;;5020436;28;20347;-91
2021/01/09 09:53:35;;;;;;;0.00;0.00;;;1.10;87.50;;;;;;5006675;28;20048;-89
2021/01/09 09:56:21;;;;;;;1.07;0.83;;;1.20;87.40;;;;;;5027695;28;20032;-91
2021/01/09 09:58:58;;;;;;;2.27;0.07;;;1.30;87.20;;;;;;5035503;28;20040;-92
2021/01/09 10:01:25;;;;;;;0.27;0.10;;;1.40;87.00;;;;;;5019663;28;20029;-92
2021/01/09 10:04:00;;;;;;;0.03;0.03;;;1.50;87.00;;;;;;5017403;28;20037;-91
2021/01/09 10:06:37;;;;;;;0.20;0.20;;;1.50;86.80;;;;;;5018921;28;20488;-88
2021/01/09 10:09:19;;;;;;;0.00;0.00;;;1.70;86.80;;;;;;5056512;28;20041;-85
2021/01/09 10:11:47;;;;;;;0.47;0.23;;;2.10;86.20;;;;;;5018213;28;20033;-90
2021/01/09 10:14:14;;;;;;;0.00;0.00;;;2.20;85.40;;;;;;5035876;28;20048;-92
2021/01/09 10:16:40;;;;;;;0.23;0.10;;;2.10;85.50;;;;;;5017021;28;20463;-91
2021/01/09 10:19:09;;;;;;;0.17;0.17;;;2.00;85.60;;;;;;5017986;28;20036;-91
2021/01/09 10:21:47;;;;;;;0.10;0.10;;;1.90;85.80;;;;;;5021143;28;20044;-91
2021/01/09 10:24:14;;;;;;;1.70;0.50;;;1.90;86.00;;;;;;5018585;28;20037;-92
2021/01/09 10:26:40;;;;;;;0.00;0.00;;;2.00;86.00;;;;;;5041612;28;20037;-91
2021/01/09 10:29:42;;;;;;;0.00;0.00;;;1.90;85.80;;;;;;5021903;28;20048;-90
2021/01/09 10:32:09;;;;;;;0.73;0.30;;;2.00;85.80;;;;;;4966552;28;20034;-91
2021/01/09 10:34:38;;;;;;;0.10;0.10;;;2.00;85.80;;;;;;5022803;28;20302;-92
2021/01/09 10:37:07;;;;;;;0.60;0.37;;;2.10;85.60;;;;;;5022508;28;20041;-92
2021/01/09 10:39:34;;;;;;;0.10;0.10;;;2.10;85.50;;;;;;5006314;28;20030;-91
2021/01/09 10:42:03;;;;;;;0.17;0.13;;;2.20;85.50;;;;;;5038336;28;20269;-91
2021/01/09 10:44:32;;;;;;;0.90;0.47;;;2.30;85.20;;;;;;5019233;28;20033;-92
2021/01/09 10:47:11;;;;;;;;;;;;;;;;;;;;;
2021/01/09 10:50:16;;;;;;;0.00;0.00;;;2.30;85.00;;;;;;5022185;28;20349;-92
2021/01/09 10:52:43;;;;;;;0.33;0.30;;;2.30;84.80;;;;;;4987039;28;20050;-91
2021/01/09 10:55:13;;;;;;;0.00;0.00;;;2.30;85.60;;;;;;4925846;28;20362;-91
2021/01/09 10:57:39;;;;;;;0.23;0.23;;;2.30;84.90;;;;;;4972028;28;20053;-91
2021/01/09 11:00:21;;;;;;;1.70;0.53;;;2.30;85.00;;;;;;5026875;28;20053;-91
2021/01/09 11:02:52;;;;;;;0.00;0.00;;;2.30;85.00;;;;;;4996606;28;20193;-90
2021/01/09 11:05:19;;;;;;;;;;;2.50;84.80;;;;;;4999411;28;20046;-90
2021/01/09 11:08:24;;;;;;;2.83;0.57;;;2.60;84.50;;;;;;4969006;28;19914;-92
2021/01/09 11:11:32;;;;;;;;;;;;;;;;;;;;;
2021/01/09 11:13:59;;;;;;;2.47;1.17;;;2.50;85.30;;;;;;4977508;28;20030;-92
2021/01/09 11:16:26;;;;;;;0.00;0.00;;;2.40;84.50;;;;;;4990599;28;20038;-90
2021/01/09 11:18:52;;;;;;;0.70;0.50;;;2.40;84.60;;;;;;4995718;28;20476;-90
2021/01/09 11:21:28;;;;;;;0.50;0.30;;;2.50;84.70;;;;;;4985693;28;20042;-89
2021/01/09 11:24:21;;;;;;;;;;;;;;;;;;;;;
2021/01/09 11:26:54;;;;;;;1.80;1.23;;;2.60;84.40;;;;;;4975360;28;20050;-91
2021/01/09 11:29:39;;;;;;;0.40;0.37;;;2.60;84.40;;;;;;4978534;28;20049;-91
2021/01/09 11:32:16;;;;;;;1.53;0.63;;;2.60;84.50;;;;;;4980629;28;20090;-89
2021/01/09 11:42:13;;;;;;;0.30;0.30;;;2.80;84.10;;;;;;4956939;28;20034;-93
2021/01/09 12:00:04;;;;;;;0.00;0.00;;;2.90;84.20;;;;;;4856266;28;20044;-91
2021/01/09 12:05:39;;;;;;;4.23;0.77;;;3.00;84.10;;;;;;4980122;28;20505;-84
2021/01/09 12:12:02;;;;;;;0.80;0.80;;;3.20;84.20;;;;;;5028729;28;20456;-91
2021/01/09 12:14:37;;;;;;;0.00;0.00;;;3.30;84.00;;;;;;4997119;28;20045;-92
2021/01/09 12:17:06;;;;;;;0.00;0.00;;;3.30;83.80;;;;;;5012142;28;20044;-91
2021/01/09 12:19:33;;;;;;;0.00;0.00;;;3.40;83.80;;;;;;5033089;28;20470;-93
2021/01/09 12:22:48;;;;;;;1.23;0.97;;;3.50;83.60;;;;;;5030563;28;20049;-91
2021/01/09 12:32:07;;;;;;;0.13;0.03;;;3.90;82.90;;;;;;5200436;22;20059;-93
2021/01/09 12:41:43;;;;;;;0.27;0.17;;;3.60;83.40;;;;;;5164042;22;20461;-91
2021/01/09 12:44:10;;;;;;;0.00;0.00;;;3.60;83.70;;;;;;5034566;28;20434;-90
2021/01/09 12:46:43;;;;;;;1.80;0.80;;;3.60;83.70;;;;;;5018511;28;20028;-89
2021/01/09 12:49:19;;;;;;;2.73;0.83;;;3.50;83.70;;;;;;5009241;28;20419;-92
2021/01/09 12:51:46;;;;;;;1.33;0.43;;;3.40;83.70;;;;;;5027190;28;20044;-89
2021/01/09 12:54:13;;;;;;;0.77;0.77;;;3.40;84.00;;;;;;5028086;28;20335;-89
2021/01/09 12:56:45;;;;;;;0.70;0.70;;;3.30;84.10;;;;;;5018149;28;20434;-91
2021/01/09 13:03:21;;;;;;;0.40;0.20;;;3.30;84.30;;;;;;5033971;28;20040;-93
2021/01/09 13:06:33;;;;;;;;;;;;;;;;;;;;;
2021/01/09 13:09:00;;;;;;;0.37;0.20;;;3.20;84.40;;;;;;4990049;28;20028;-91
2021/01/09 13:14:50;;;;;;;0.20;0.10;;;3.30;84.60;;;;;;5029399;28;20136;-90
2021/01/09 13:17:20;;;;;;;0.20;0.20;;;3.30;84.40;;;;;;5011278;28;20037;-92
2021/01/09 13:19:51;;;;;;;0.67;0.57;;;3.20;84.40;;;;;;5033080;28;20052;-89
2021/01/09 13:22:17;;;;;;;0.10;0.10;;;3.20;84.50;;;;;;5024601;28;20033;-92
2021/01/09 13:24:49;;;;;;;0.60;0.40;;;3.20;84.70;;;;;;5040548;28;20312;-93
2021/01/09 13:27:16;;;;;;;3.97;0.87;;;3.20;84.80;;;;;;5035171;28;20068;-92
2021/01/09 13:29:42;;;;;;;3.50;0.83;;;3.20;84.80;;;;;;5023448;28;20335;-90
2021/01/09 13:32:34;;;;;;;2.37;1.67;;;3.10;84.80;;;;;;5039870;28;20033;-90
2021/01/09 13:35:01;;;;;;;0.20;0.20;;;3.20;84.90;;;;;;5040850;28;20076;-92
2021/01/09 13:37:29;;;;;;;0.00;0.00;;;3.20;84.90;;;;;;5038078;28;20039;-91
2021/01/09 13:39:55;;;;;;;0.10;0.10;;;3.20;84.90;;;;;;5032946;28;20044;-93
2021/01/09 13:42:22;;;;;;;3.70;0.27;;;3.20;84.90;;;;;;5021476;28;20044;-91
2021/01/09 13:44:49;;;;;;;1.47;0.47;;;3.20;84.80;;;;;;5029224;28;20426;-88
2021/01/09 13:47:15;;;;;;;0.47;0.47;;;3.20;84.80;;;;;;5041964;28;20047;-93
2021/01/09 13:49:49;;;;;;;0.00;0.00;;;3.20;84.80;;;;;;5038361;28;20048;-92
2021/01/09 13:52:25;;;;;;;0.30;0.30;;;3.30;84.80;;;;;;5045425;28;20044;-91
2021/01/09 13:55:34;;;;;;;0.00;0.00;;;3.30;84.70;;;;;;5032767;28;20056;-93
2021/01/09 13:58:00;;;;;;;0.00;0.00;;;3.30;84.70;;;;;;5055056;28;20453;-93
2021/01/09 14:00:28;;;;;;;5.30;0.80;;;3.30;84.60;;;;;;5016824;28;20040;-92
2021/01/09 14:03:16;;;;;;;;;;;;;;;;;;;;;
2021/01/09 14:05:44;;;;;;;2.23;0.87;;;3.40;84.50;;;;;;5039382;28;20046;-90
2021/01/09 14:08:11;;;;;;;4.23;0.27;;;3.40;84.40;;;;;;5039198;28;20043;-91
2021/01/09 14:10:40;;;;;;;0.43;0.27;;;3.40;84.40;;;;;;5030395;28;20539;-93
2021/01/09 14:13:06;;;;;;;1.53;0.87;;;3.40;84.40;;;;;;5050529;28;20036;-91